sensor_id;sensor_type;location;lat;lon;timestamp;temperature;humidity
70366;DHT22;57787;48.216;12.396;2022-12-18T00:01:19;-3.70;88.90
70366;DHT22;57787;48.216;12.396;2022-12-18T00:03:47;-3.80;88.80
70366;DHT22;57787;48.216;12.396;2022-12-18T00:06:16;-3.80;88.80
70366;DHT22;57787;48.216;12.396;2022-12-18T00:08:44;-3.80;88.90
70366;DHT22;57787;48.216;12.396;2022-12-18T00:11:14;-3.80;88.90
70366;DHT22;57787;48.216;12.396;2022-12-18T00:13:41;-3.70;89.00
70366;DHT22;57787;48.216;12.396;2022-12-18T00:16:11;-3.70;89.00
70366;DHT22;57787;48.216;12.396;2022-12-18T00:18:40;-3.70;89.10
70366;DHT22;57787;48.216;12.396;2022-12-18T00:21:10;-3.70;89.10
70366;DHT22;57787;48.216;12.396;2022-12-18T00:23:38;-3.70;89.00
70366;DHT22;57787;48.216;12.396;2022-12-18T00:26:09;-3.70;89.00
70366;DHT22;57787;48.216;12.396;2022-12-18T00:28:38;-3.70;88.80
70366;DHT22;57787;48.216;12.396;2022-12-18T00:31:08;-3.70;88.70
70366;DHT22;57787;48.216;12.396;2022-12-18T00:33:47;-3.70;88.60
70366;DHT22;57787;48.216;12.396;2022-12-18T00:36:29;-3.70;88.40
70366;DHT22;57787;48.216;12.396;2022-12-18T00:39:03;-3.70;88.40
70366;DHT22;57787;48.216;12.396;2022-12-18T00:41:30;-3.70;88.40
70366;DHT22;57787;48.216;12.396;2022-12-18T00:44:17;-3.70;88.40
70366;DHT22;57787;48.216;12.396;2022-12-18T00:46:46;-3.70;88.60
70366;DHT22;57787;48.216;12.396;2022-12-18T00:49:14;-3.70;88.50
70366;DHT22;57787;48.216;12.396;2022-12-18T00:51:42;-3.70;88.60
70366;DHT22;57787;48.216;12.396;2022-12-18T00:54:10;-3.70;88.60
70366;DHT22;57787;48.216;12.396;2022-12-18T00:56:38;-3.70;88.70
70366;DHT22;57787;48.216;12.396;2022-12-18T00:59:15;-3.70;88.60
70366;DHT22;57787;48.216;12.396;2022-12-18T01:01:43;-3.70;88.60
70366;DHT22;57787;48.216;12.396;2022-12-18T01:04:10;-3.70;88.70
70366;DHT22;57787;48.216;12.396;2022-12-18T01:06:37;-3.70;88.70
70366;DHT22;57787;48.216;12.396;2022-12-18T01:09:06;-3.70;88.70
70366;DHT22;57787;48.216;12.396;2022-12-18T01:11:33;-3.70;88.60
70366;DHT22;57787;48.216;12.396;2022-12-18T01:14:00;-3.70;88.70
70366;DHT22;57787;48.216;12.396;2022-12-18T01:16:27;-3.70;88.60
70366;DHT22;57787;48.216;12.396;2022-12-18T01:18:55;-3.80;88.70
70366;DHT22;57787;48.216;12.396;2022-12-18T01:21:22;-3.70;88.70
70366;DHT22;57787;48.216;12.396;2022-12-18T01:23:54;-3.70;88.70
70366;DHT22;57787;48.216;12.396;2022-12-18T01:26:22;-3.80;88.70
70366;DHT22;57787;48.216;12.396;2022-12-18T01:28:49;-3.80;88.70
70366;DHT22;57787;48.216;12.396;2022-12-18T01:31:26;-3.80;88.60
70366;DHT22;57787;48.216;12.396;2022-12-18T01:33:57;-3.80;88.60
70366;DHT22;57787;48.216;12.396;2022-12-18T01:36:27;-3.80;88.70
70366;DHT22;57787;48.216;12.396;2022-12-18T01:38:55;-3.80;88.70
70366;DHT22;57787;48.216;12.396;2022-12-18T01:41:25;-3.90;88.70
70366;DHT22;57787;48.216;12.396;2022-12-18T01:43:57;-3.80;88.80
70366;DHT22;57787;48.216;12.396;2022-12-18T01:46:25;-3.80;88.80
70366;DHT22;57787;48.216;12.396;2022-12-18T01:49:01;-3.80;88.80
70366;DHT22;57787;48.216;12.396;2022-12-18T01:51:29;-3.80;88.80
70366;DHT22;57787;48.216;12.396;2022-12-18T01:54:02;-3.80;88.90
70366;DHT22;57787;48.216;12.396;2022-12-18T01:56:29;-3.80;88.90
70366;DHT22;57787;48.216;12.396;2022-12-18T01:59:04;-3.80;88.90
70366;DHT22;57787;48.216;12.396;2022-12-18T02:01:32;-3.80;88.90
70366;DHT22;57787;48.216;12.396;2022-12-18T02:04:19;-3.70;88.90
70366;DHT22;57787;48.216;12.396;2022-12-18T02:06:53;-3.80;88.70
70366;DHT22;57787;48.216;12.396;2022-12-18T02:09:31;-3.70;88.70
70366;DHT22;57787;48.216;12.396;2022-12-18T02:12:17;-3.80;88.60
70366;DHT22;57787;48.216;12.396;2022-12-18T02:15:10;-3.80;88.60
70366;DHT22;57787;48.216;12.396;2022-12-18T02:17:40;-3.80;88.60
70366;DHT22;57787;48.216;12.396;2022-12-18T02:20:46;-3.80;88.70
70366;DHT22;57787;48.216;12.396;2022-12-18T02:26:37;-3.80;88.70
70366;DHT22;57787;48.216;12.396;2022-12-18T02:29:08;-3.80;88.90
70366;DHT22;57787;48.216;12.396;2022-12-18T02:31:42;-3.80;88.60
70366;DHT22;57787;48.216;12.396;2022-12-18T02:34:12;-3.80;88.60
70366;DHT22;57787;48.216;12.396;2022-12-18T02:36:43;-3.80;88.70
70366;DHT22;57787;48.216;12.396;2022-12-18T02:39:12;-3.80;88.70
70366;DHT22;57787;48.216;12.396;2022-12-18T02:41:40;-3.80;88.70
70366;DHT22;57787;48.216;12.396;2022-12-18T02:44:10;-3.80;88.70
70366;DHT22;57787;48.216;12.396;2022-12-18T02:46:38;-3.80;88.80
70366;DHT22;57787;48.216;12.396;2022-12-18T02:55:07;-3.80;88.90
70366;DHT22;57787;48.216;12.396;2022-12-18T02:57:46;-3.80;88.80
70366;DHT22;57787;48.216;12.396;2022-12-18T03:00:25;-3.80;88.70
70366;DHT22;57787;48.216;12.396;2022-12-18T03:03:13;-3.80;88.70
70366;DHT22;57787;48.216;12.396;2022-12-18T03:08:23;-3.80;88.60
70366;DHT22;57787;48.216;12.396;2022-12-18T03:11:00;-3.80;88.50
70366;DHT22;57787;48.216;12.396;2022-12-18T03:13:37;-3.80;88.60
70366;DHT22;57787;48.216;12.396;2022-12-18T03:16:11;-3.80;88.60
70366;DHT22;57787;48.216;12.396;2022-12-18T03:18:52;-3.80;88.60
70366;DHT22;57787;48.216;12.396;2022-12-18T03:21:28;-3.70;88.60
70366;DHT22;57787;48.216;12.396;2022-12-18T03:23:56;-3.80;88.10
70366;DHT22;57787;48.216;12.396;2022-12-18T03:26:25;-3.80;88.10
70366;DHT22;57787;48.216;12.396;2022-12-18T03:29:03;-3.80;88.20
70366;DHT22;57787;48.216;12.396;2022-12-18T03:31:31;-3.80;88.00
70366;DHT22;57787;48.216;12.396;2022-12-18T03:34:05;-3.80;88.10
70366;DHT22;57787;48.216;12.396;2022-12-18T03:36:35;-3.80;88.10
70366;DHT22;57787;48.216;12.396;2022-12-18T03:39:02;-3.80;88.10
70366;DHT22;57787;48.216;12.396;2022-12-18T03:41:43;-3.80;88.20
70366;DHT22;57787;48.216;12.396;2022-12-18T03:44:23;-3.80;88.20
70366;DHT22;57787;48.216;12.396;2022-12-18T03:52:40;-3.80;88.00
70366;DHT22;57787;48.216;12.396;2022-12-18T03:55:12;-3.80;88.00
70366;DHT22;57787;48.216;12.396;2022-12-18T03:57:39;-3.80;87.80
70366;DHT22;57787;48.216;12.396;2022-12-18T04:00:13;-3.80;87.90
70366;DHT22;57787;48.216;12.396;2022-12-18T04:02:44;-3.90;87.70
70366;DHT22;57787;48.216;12.396;2022-12-18T04:05:13;-3.90;87.70
70366;DHT22;57787;48.216;12.396;2022-12-18T04:07:41;-3.90;87.60
70366;DHT22;57787;48.216;12.396;2022-12-18T04:10:10;-3.90;87.70
70366;DHT22;57787;48.216;12.396;2022-12-18T04:12:38;-3.90;87.60
70366;DHT22;57787;48.216;12.396;2022-12-18T04:15:07;-4.00;87.50
70366;DHT22;57787;48.216;12.396;2022-12-18T04:17:34;-4.00;87.30
70366;DHT22;57787;48.216;12.396;2022-12-18T04:20:01;-4.00;87.10
70366;DHT22;57787;48.216;12.396;2022-12-18T04:22:29;-4.00;86.90
70366;DHT22;57787;48.216;12.396;2022-12-18T04:24:56;-4.10;86.70
70366;DHT22;57787;48.216;12.396;2022-12-18T04:27:23;-4.10;86.90
70366;DHT22;57787;48.216;12.396;2022-12-18T04:29:51;-4.20;87.00
70366;DHT22;57787;48.216;12.396;2022-12-18T04:32:18;-4.20;87.00
70366;DHT22;57787;48.216;12.396;2022-12-18T04:34:45;-4.20;86.90
70366;DHT22;57787;48.216;12.396;2022-12-18T04:37:13;-4.20;87.00
70366;DHT22;57787;48.216;12.396;2022-12-18T04:39:40;-4.20;87.00
70366;DHT22;57787;48.216;12.396;2022-12-18T04:42:07;-4.20;87.10
70366;DHT22;57787;48.216;12.396;2022-12-18T04:44:34;-4.20;87.10
70366;DHT22;57787;48.216;12.396;2022-12-18T04:47:01;-4.20;87.20
70366;DHT22;57787;48.216;12.396;2022-12-18T04:49:29;-4.30;87.20
70366;DHT22;57787;48.216;12.396;2022-12-18T04:51:57;-4.30;87.10
70366;DHT22;57787;48.216;12.396;2022-12-18T04:54:24;-4.30;87.30
70366;DHT22;57787;48.216;12.396;2022-12-18T04:56:51;-4.30;87.50
70366;DHT22;57787;48.216;12.396;2022-12-18T04:59:21;-4.30;87.40
70366;DHT22;57787;48.216;12.396;2022-12-18T05:01:49;-4.30;87.50
70366;DHT22;57787;48.216;12.396;2022-12-18T05:04:16;-4.30;87.30
70366;DHT22;57787;48.216;12.396;2022-12-18T05:06:43;-4.40;87.40
70366;DHT22;57787;48.216;12.396;2022-12-18T05:09:10;-4.30;87.50
70366;DHT22;57787;48.216;12.396;2022-12-18T05:11:37;-4.30;87.40
70366;DHT22;57787;48.216;12.396;2022-12-18T05:14:04;-4.30;87.40
70366;DHT22;57787;48.216;12.396;2022-12-18T05:16:31;-4.30;87.20
70366;DHT22;57787;48.216;12.396;2022-12-18T05:18:58;-4.30;87.30
70366;DHT22;57787;48.216;12.396;2022-12-18T05:21:25;-4.40;87.30
70366;DHT22;57787;48.216;12.396;2022-12-18T05:23:52;-4.30;87.30
70366;DHT22;57787;48.216;12.396;2022-12-18T05:26:19;-4.30;87.40
70366;DHT22;57787;48.216;12.396;2022-12-18T05:28:46;-4.30;87.40
70366;DHT22;57787;48.216;12.396;2022-12-18T05:31:13;-4.30;87.20
70366;DHT22;57787;48.216;12.396;2022-12-18T05:33:40;-4.30;87.20
70366;DHT22;57787;48.216;12.396;2022-12-18T05:36:10;-4.40;87.10
70366;DHT22;57787;48.216;12.396;2022-12-18T05:38:38;-4.30;87.10
70366;DHT22;57787;48.216;12.396;2022-12-18T05:41:06;-4.30;87.20
70366;DHT22;57787;48.216;12.396;2022-12-18T05:43:37;-4.40;87.20
70366;DHT22;57787;48.216;12.396;2022-12-18T05:46:12;-4.40;87.10
70366;DHT22;57787;48.216;12.396;2022-12-18T05:48:43;-4.40;87.10
70366;DHT22;57787;48.216;12.396;2022-12-18T05:51:14;-4.40;87.00
70366;DHT22;57787;48.216;12.396;2022-12-18T05:53:43;-4.40;86.90
70366;DHT22;57787;48.216;12.396;2022-12-18T05:56:13;-4.40;87.00
70366;DHT22;57787;48.216;12.396;2022-12-18T05:58:41;-4.40;86.80
70366;DHT22;57787;48.216;12.396;2022-12-18T06:01:20;-4.50;86.70
70366;DHT22;57787;48.216;12.396;2022-12-18T06:03:47;-4.50;86.70
70366;DHT22;57787;48.216;12.396;2022-12-18T06:06:20;-4.50;86.50
70366;DHT22;57787;48.216;12.396;2022-12-18T06:08:49;-4.60;86.50
70366;DHT22;57787;48.216;12.396;2022-12-18T06:11:17;-4.60;86.60
70366;DHT22;57787;48.216;12.396;2022-12-18T06:13:46;-4.60;86.60
70366;DHT22;57787;48.216;12.396;2022-12-18T06:16:16;-4.60;86.60
70366;DHT22;57787;48.216;12.396;2022-12-18T06:18:43;-4.60;86.70
70366;DHT22;57787;48.216;12.396;2022-12-18T06:21:11;-4.60;86.80
70366;DHT22;57787;48.216;12.396;2022-12-18T06:23:38;-4.60;86.90
70366;DHT22;57787;48.216;12.396;2022-12-18T06:26:10;-4.60;86.90
70366;DHT22;57787;48.216;12.396;2022-12-18T06:28:37;-4.60;87.00
70366;DHT22;57787;48.216;12.396;2022-12-18T06:31:05;-4.60;87.00
70366;DHT22;57787;48.216;12.396;2022-12-18T06:33:33;-4.60;87.10
70366;DHT22;57787;48.216;12.396;2022-12-18T06:36:12;-4.60;87.30
70366;DHT22;57787;48.216;12.396;2022-12-18T06:38:41;-4.60;87.30
70366;DHT22;57787;48.216;12.396;2022-12-18T06:41:20;-4.60;87.30
70366;DHT22;57787;48.216;12.396;2022-12-18T06:43:47;-4.50;87.30
70366;DHT22;57787;48.216;12.396;2022-12-18T06:46:14;-4.60;87.10
70366;DHT22;57787;48.216;12.396;2022-12-18T06:48:42;-4.50;87.30
70366;DHT22;57787;48.216;12.396;2022-12-18T06:51:10;-4.50;87.40
70366;DHT22;57787;48.216;12.396;2022-12-18T06:53:37;-4.50;87.50
70366;DHT22;57787;48.216;12.396;2022-12-18T06:56:06;-4.50;87.30
70366;DHT22;57787;48.216;12.396;2022-12-18T06:58:39;-4.50;87.40
70366;DHT22;57787;48.216;12.396;2022-12-18T07:01:11;-4.50;87.40
70366;DHT22;57787;48.216;12.396;2022-12-18T07:03:42;-4.50;87.40
70366;DHT22;57787;48.216;12.396;2022-12-18T07:06:18;-4.50;87.40
70366;DHT22;57787;48.216;12.396;2022-12-18T07:08:46;-4.50;87.40
70366;DHT22;57787;48.216;12.396;2022-12-18T07:11:13;-4.50;87.40
70366;DHT22;57787;48.216;12.396;2022-12-18T07:13:40;-4.40;87.40
70366;DHT22;57787;48.216;12.396;2022-12-18T07:16:13;-4.40;87.50
70366;DHT22;57787;48.216;12.396;2022-12-18T07:18:50;-4.40;87.30
70366;DHT22;57787;48.216;12.396;2022-12-18T07:21:19;-4.40;87.40
70366;DHT22;57787;48.216;12.396;2022-12-18T07:23:48;-4.30;87.40
70366;DHT22;57787;48.216;12.396;2022-12-18T07:26:19;-4.30;87.60
70366;DHT22;57787;48.216;12.396;2022-12-18T07:28:47;-4.20;87.50
70366;DHT22;57787;48.216;12.396;2022-12-18T07:31:15;-4.20;87.20
70366;DHT22;57787;48.216;12.396;2022-12-18T07:33:45;-4.20;87.10
70366;DHT22;57787;48.216;12.396;2022-12-18T07:36:13;-4.20;87.40
70366;DHT22;57787;48.216;12.396;2022-12-18T07:38:40;-4.10;87.10
70366;DHT22;57787;48.216;12.396;2022-12-18T07:41:09;-4.10;87.20
70366;DHT22;57787;48.216;12.396;2022-12-18T07:43:37;-4.00;87.10
70366;DHT22;57787;48.216;12.396;2022-12-18T07:46:05;-4.00;87.10
70366;DHT22;57787;48.216;12.396;2022-12-18T07:48:33;-4.00;87.00
70366;DHT22;57787;48.216;12.396;2022-12-18T07:51:03;-3.90;87.10
70366;DHT22;57787;48.216;12.396;2022-12-18T07:53:31;-4.00;86.70
70366;DHT22;57787;48.216;12.396;2022-12-18T07:56:00;-3.90;87.00
70366;DHT22;57787;48.216;12.396;2022-12-18T07:58:51;-3.90;86.70
70366;DHT22;57787;48.216;12.396;2022-12-18T08:01:23;-3.80;86.70
70366;DHT22;57787;48.216;12.396;2022-12-18T08:03:52;-3.80;86.60
70366;DHT22;57787;48.216;12.396;2022-12-18T08:06:23;-3.80;86.40
70366;DHT22;57787;48.216;12.396;2022-12-18T08:08:55;-3.80;86.30
70366;DHT22;57787;48.216;12.396;2022-12-18T08:11:24;-3.70;86.20
70366;DHT22;57787;48.216;12.396;2022-12-18T08:13:53;-3.60;86.50
70366;DHT22;57787;48.216;12.396;2022-12-18T08:16:26;-3.60;86.40
70366;DHT22;57787;48.216;12.396;2022-12-18T08:19:00;-3.50;86.50
70366;DHT22;57787;48.216;12.396;2022-12-18T08:21:33;-3.50;86.40
70366;DHT22;57787;48.216;12.396;2022-12-18T08:24:01;-3.40;86.40
70366;DHT22;57787;48.216;12.396;2022-12-18T08:26:31;-3.30;85.90
70366;DHT22;57787;48.216;12.396;2022-12-18T08:29:01;-3.30;85.50
70366;DHT22;57787;48.216;12.396;2022-12-18T08:31:29;-3.30;85.30
70366;DHT22;57787;48.216;12.396;2022-12-18T08:33:58;-3.20;85.70
70366;DHT22;57787;48.216;12.396;2022-12-18T08:36:25;-3.10;85.40
70366;DHT22;57787;48.216;12.396;2022-12-18T08:38:53;-3.10;84.60
70366;DHT22;57787;48.216;12.396;2022-12-18T08:41:20;-3.10;84.60
70366;DHT22;57787;48.216;12.396;2022-12-18T08:43:52;-3.10;84.50
70366;DHT22;57787;48.216;12.396;2022-12-18T08:46:40;-3.10;84.30
70366;DHT22;57787;48.216;12.396;2022-12-18T08:49:08;-3.00;84.10
70366;DHT22;57787;48.216;12.396;2022-12-18T08:51:36;-2.90;83.90
70366;DHT22;57787;48.216;12.396;2022-12-18T08:54:04;-2.80;83.70
70366;DHT22;57787;48.216;12.396;2022-12-18T08:56:40;-2.70;83.40
70366;DHT22;57787;48.216;12.396;2022-12-18T08:59:08;-2.70;82.70
70366;DHT22;57787;48.216;12.396;2022-12-18T09:01:44;-2.60;82.90
70366;DHT22;57787;48.216;12.396;2022-12-18T09:04:12;-2.60;82.30
70366;DHT22;57787;48.216;12.396;2022-12-18T09:06:40;-2.60;82.30
70366;DHT22;57787;48.216;12.396;2022-12-18T09:09:08;-2.60;82.30
70366;DHT22;57787;48.216;12.396;2022-12-18T09:11:35;-2.50;82.30
70366;DHT22;57787;48.216;12.396;2022-12-18T09:14:09;-2.40;82.70
70366;DHT22;57787;48.216;12.396;2022-12-18T09:16:38;-2.30;82.30
70366;DHT22;57787;48.216;12.396;2022-12-18T09:19:12;-2.30;81.90
70366;DHT22;57787;48.216;12.396;2022-12-18T09:21:39;-2.20;82.10
70366;DHT22;57787;48.216;12.396;2022-12-18T09:24:14;-2.20;81.70
70366;DHT22;57787;48.216;12.396;2022-12-18T09:26:41;-2.10;81.40
70366;DHT22;57787;48.216;12.396;2022-12-18T09:29:14;-2.10;80.70
70366;DHT22;57787;48.216;12.396;2022-12-18T09:31:50;-2.10;80.20
70366;DHT22;57787;48.216;12.396;2022-12-18T09:34:20;-2.00;80.30
70366;DHT22;57787;48.216;12.396;2022-12-18T09:36:48;-2.00;80.20
70366;DHT22;57787;48.216;12.396;2022-12-18T09:39:15;-2.00;80.30
70366;DHT22;57787;48.216;12.396;2022-12-18T09:41:50;-1.90;79.90
70366;DHT22;57787;48.216;12.396;2022-12-18T09:44:43;-2.00;79.60
70366;DHT22;57787;48.216;12.396;2022-12-18T09:49:43;-2.20;79.90
70366;DHT22;57787;48.216;12.396;2022-12-18T09:52:34;-2.30;80.60
70366;DHT22;57787;48.216;12.396;2022-12-18T09:55:15;-2.30;80.70
70366;DHT22;57787;48.216;12.396;2022-12-18T09:57:55;-2.30;80.60
70366;DHT22;57787;48.216;12.396;2022-12-18T10:00:25;-2.30;80.90
70366;DHT22;57787;48.216;12.396;2022-12-18T10:03:10;-2.30;80.30
70366;DHT22;57787;48.216;12.396;2022-12-18T10:20:17;-1.80;79.90
70366;DHT22;57787;48.216;12.396;2022-12-18T10:28:12;-1.60;79.10
70366;DHT22;57787;48.216;12.396;2022-12-18T10:30:43;-1.50;78.40
70366;DHT22;57787;48.216;12.396;2022-12-18T10:33:18;-1.50;78.90
70366;DHT22;57787;48.216;12.396;2022-12-18T10:35:49;-1.40;78.60
70366;DHT22;57787;48.216;12.396;2022-12-18T10:41:03;-1.30;78.50
70366;DHT22;57787;48.216;12.396;2022-12-18T10:43:36;-1.30;78.00
70366;DHT22;57787;48.216;12.396;2022-12-18T10:46:17;-1.30;78.10
70366;DHT22;57787;48.216;12.396;2022-12-18T10:48:50;-1.20;78.40
70366;DHT22;57787;48.216;12.396;2022-12-18T10:54:23;-1.20;76.80
70366;DHT22;57787;48.216;12.396;2022-12-18T10:56:49;-0.90;77.80
70366;DHT22;57787;48.216;12.396;2022-12-18T10:59:25;-0.80;77.20
70366;DHT22;57787;48.216;12.396;2022-12-18T11:02:01;-0.60;75.90
70366;DHT22;57787;48.216;12.396;2022-12-18T11:04:31;-0.60;76.30
70366;DHT22;57787;48.216;12.396;2022-12-18T11:09:34;-0.50;74.70
70366;DHT22;57787;48.216;12.396;2022-12-18T11:12:04;-0.40;74.80
70366;DHT22;57787;48.216;12.396;2022-12-18T11:14:45;-0.40;75.50
70366;DHT22;57787;48.216;12.396;2022-12-18T11:17:27;-0.40;75.20
70366;DHT22;57787;48.216;12.396;2022-12-18T11:19:58;-0.40;75.70
70366;DHT22;57787;48.216;12.396;2022-12-18T11:22:39;-0.50;75.40
70366;DHT22;57787;48.216;12.396;2022-12-18T11:25:22;-0.40;75.90
70366;DHT22;57787;48.216;12.396;2022-12-18T11:28:06;-0.50;75.00
70366;DHT22;57787;48.216;12.396;2022-12-18T11:31:17;-0.50;74.60
70366;DHT22;57787;48.216;12.396;2022-12-18T11:36:49;-0.60;75.50
70366;DHT22;57787;48.216;12.396;2022-12-18T11:39:39;-0.60;74.60
70366;DHT22;57787;48.216;12.396;2022-12-18T11:42:27;-0.70;75.60
70366;DHT22;57787;48.216;12.396;2022-12-18T11:45:16;-0.70;75.20
70366;DHT22;57787;48.216;12.396;2022-12-18T11:50:46;-0.80;75.20
70366;DHT22;57787;48.216;12.396;2022-12-18T11:53:15;-0.70;75.80
70366;DHT22;57787;48.216;12.396;2022-12-18T11:58:46;-0.80;74.70
70366;DHT22;57787;48.216;12.396;2022-12-18T12:10:08;-0.70;75.80
70366;DHT22;57787;48.216;12.396;2022-12-18T12:15:27;-0.60;75.20
70366;DHT22;57787;48.216;12.396;2022-12-18T12:18:00;-0.60;74.80
70366;DHT22;57787;48.216;12.396;2022-12-18T12:20:59;-0.60;74.50
70366;DHT22;57787;48.216;12.396;2022-12-18T12:24:12;-0.60;74.80
70366;DHT22;57787;48.216;12.396;2022-12-18T12:27:07;-0.60;74.90
70366;DHT22;57787;48.216;12.396;2022-12-18T12:35:31;-0.90;74.80
70366;DHT22;57787;48.216;12.396;2022-12-18T12:38:08;-0.90;75.50
70366;DHT22;57787;48.216;12.396;2022-12-18T12:40:59;-0.90;75.60
70366;DHT22;57787;48.216;12.396;2022-12-18T12:43:44;-0.90;75.50
70366;DHT22;57787;48.216;12.396;2022-12-18T12:46:23;-1.00;75.40
70366;DHT22;57787;48.216;12.396;2022-12-18T12:48:55;-1.10;75.50
70366;DHT22;57787;48.216;12.396;2022-12-18T12:51:34;-1.10;76.00
70366;DHT22;57787;48.216;12.396;2022-12-18T12:54:12;-1.00;76.00
70366;DHT22;57787;48.216;12.396;2022-12-18T12:56:55;-1.00;75.70
70366;DHT22;57787;48.216;12.396;2022-12-18T12:59:41;-1.10;75.40
70366;DHT22;57787;48.216;12.396;2022-12-18T13:08:21;-1.40;76.40
70366;DHT22;57787;48.216;12.396;2022-12-18T13:10:50;-1.40;76.50
70366;DHT22;57787;48.216;12.396;2022-12-18T13:13:56;-1.40;76.30
70366;DHT22;57787;48.216;12.396;2022-12-18T13:16:25;-1.30;76.40
70366;DHT22;57787;48.216;12.396;2022-12-18T13:18:58;-1.30;76.60
70366;DHT22;57787;48.216;12.396;2022-12-18T13:21:29;-1.30;76.50
70366;DHT22;57787;48.216;12.396;2022-12-18T13:24:19;-1.30;75.90
70366;DHT22;57787;48.216;12.396;2022-12-18T13:26:49;-1.30;76.10
70366;DHT22;57787;48.216;12.396;2022-12-18T13:29:44;-1.40;75.90
70366;DHT22;57787;48.216;12.396;2022-12-18T13:32:22;-1.40;76.70
70366;DHT22;57787;48.216;12.396;2022-12-18T13:37:57;-1.50;76.20
70366;DHT22;57787;48.216;12.396;2022-12-18T13:43:24;-1.40;76.80
70366;DHT22;57787;48.216;12.396;2022-12-18T13:46:01;-1.40;76.70
70366;DHT22;57787;48.216;12.396;2022-12-18T13:48:33;-1.40;76.80
70366;DHT22;57787;48.216;12.396;2022-12-18T13:51:04;-1.50;76.40
70366;DHT22;57787;48.216;12.396;2022-12-18T13:53:58;-1.50;76.70
70366;DHT22;57787;48.216;12.396;2022-12-18T13:56:31;-1.60;76.80
70366;DHT22;57787;48.216;12.396;2022-12-18T14:02:11;-1.60;77.20
70366;DHT22;57787;48.216;12.396;2022-12-18T14:04:45;-1.60;77.30
70366;DHT22;57787;48.216;12.396;2022-12-18T14:07:18;-1.70;77.40
70366;DHT22;57787;48.216;12.396;2022-12-18T14:09:56;-1.80;77.80
70366;DHT22;57787;48.216;12.396;2022-12-18T14:12:48;-1.80;77.60
70366;DHT22;57787;48.216;12.396;2022-12-18T14:15:43;-1.90;77.90
70366;DHT22;57787;48.216;12.396;2022-12-18T14:18:24;-1.90;78.20
70366;DHT22;57787;48.216;12.396;2022-12-18T14:20:57;-1.90;78.50
70366;DHT22;57787;48.216;12.396;2022-12-18T14:23:38;-1.90;78.40
70366;DHT22;57787;48.216;12.396;2022-12-18T14:26:31;-2.00;78.90
70366;DHT22;57787;48.216;12.396;2022-12-18T14:34:52;-2.10;78.90
70366;DHT22;57787;48.216;12.396;2022-12-18T14:37:23;-2.20;78.90
70366;DHT22;57787;48.216;12.396;2022-12-18T14:39:59;-2.30;79.00
70366;DHT22;57787;48.216;12.396;2022-12-18T14:42:40;-2.40;79.20
70366;DHT22;57787;48.216;12.396;2022-12-18T14:45:39;-2.50;78.90
70366;DHT22;57787;48.216;12.396;2022-12-18T14:50:44;-2.80;79.80
70366;DHT22;57787;48.216;12.396;2022-12-18T14:53:26;-2.90;79.90
70366;DHT22;57787;48.216;12.396;2022-12-18T14:55:55;-3.00;80.10
70366;DHT22;57787;48.216;12.396;2022-12-18T14:58:22;-3.10;80.30
70366;DHT22;57787;48.216;12.396;2022-12-18T15:00:49;-3.30;80.00
70366;DHT22;57787;48.216;12.396;2022-12-18T15:03:20;-3.40;80.20
70366;DHT22;57787;48.216;12.396;2022-12-18T15:05:48;-3.50;80.90
70366;DHT22;57787;48.216;12.396;2022-12-18T15:08:35;-3.60;80.80
70366;DHT22;57787;48.216;12.396;2022-12-18T15:11:03;-3.60;81.60
70366;DHT22;57787;48.216;12.396;2022-12-18T15:13:37;-3.70;82.00
70366;DHT22;57787;48.216;12.396;2022-12-18T15:16:12;-3.80;82.40
70366;DHT22;57787;48.216;12.396;2022-12-18T15:18:44;-3.90;82.00
70366;DHT22;57787;48.216;12.396;2022-12-18T15:21:18;-4.00;82.80
70366;DHT22;57787;48.216;12.396;2022-12-18T15:23:49;-4.10;82.60
70366;DHT22;57787;48.216;12.396;2022-12-18T15:26:20;-4.20;83.20
70366;DHT22;57787;48.216;12.396;2022-12-18T15:28:51;-4.20;83.70
70366;DHT22;57787;48.216;12.396;2022-12-18T15:31:30;-4.20;83.90
70366;DHT22;57787;48.216;12.396;2022-12-18T15:36:26;-4.40;83.30
70366;DHT22;57787;48.216;12.396;2022-12-18T15:38:55;-4.50;83.20
70366;DHT22;57787;48.216;12.396;2022-12-18T15:41:35;-4.60;83.00
70366;DHT22;57787;48.216;12.396;2022-12-18T15:44:25;-4.60;83.10
70366;DHT22;57787;48.216;12.396;2022-12-18T15:46:52;-4.70;83.00
70366;DHT22;57787;48.216;12.396;2022-12-18T15:49:19;-4.80;83.60
70366;DHT22;57787;48.216;12.396;2022-12-18T15:51:51;-4.90;83.40
70366;DHT22;57787;48.216;12.396;2022-12-18T15:54:20;-4.90;83.10
70366;DHT22;57787;48.216;12.396;2022-12-18T15:57:08;-5.00;83.40
70366;DHT22;57787;48.216;12.396;2022-12-18T15:59:52;-5.10;83.20
70366;DHT22;57787;48.216;12.396;2022-12-18T16:02:22;-5.10;83.00
70366;DHT22;57787;48.216;12.396;2022-12-18T16:04:51;-5.20;82.90
70366;DHT22;57787;48.216;12.396;2022-12-18T16:07:20;-5.20;84.10
70366;DHT22;57787;48.216;12.396;2022-12-18T16:09:50;-5.30;83.40
70366;DHT22;57787;48.216;12.396;2022-12-18T16:12:22;-5.30;83.00
70366;DHT22;57787;48.216;12.396;2022-12-18T16:14:51;-5.40;82.70
70366;DHT22;57787;48.216;12.396;2022-12-18T16:17:18;-5.50;82.50
70366;DHT22;57787;48.216;12.396;2022-12-18T16:19:45;-5.60;82.30
70366;DHT22;57787;48.216;12.396;2022-12-18T16:22:23;-5.60;82.30
70366;DHT22;57787;48.216;12.396;2022-12-18T16:24:53;-5.70;82.40
70366;DHT22;57787;48.216;12.396;2022-12-18T16:27:20;-5.80;82.20
70366;DHT22;57787;48.216;12.396;2022-12-18T16:29:48;-5.80;82.10
70366;DHT22;57787;48.216;12.396;2022-12-18T16:32:18;-5.90;81.90
70366;DHT22;57787;48.216;12.396;2022-12-18T16:34:46;-6.00;81.80
70366;DHT22;57787;48.216;12.396;2022-12-18T16:37:15;-6.10;81.70
70366;DHT22;57787;48.216;12.396;2022-12-18T16:39:42;-6.10;81.60
70366;DHT22;57787;48.216;12.396;2022-12-18T16:42:18;-6.20;81.70
70366;DHT22;57787;48.216;12.396;2022-12-18T16:44:49;-6.30;81.60
70366;DHT22;57787;48.216;12.396;2022-12-18T16:47:16;-6.30;81.50
70366;DHT22;57787;48.216;12.396;2022-12-18T16:49:44;-6.40;81.50
70366;DHT22;57787;48.216;12.396;2022-12-18T16:52:13;-6.40;81.80
70366;DHT22;57787;48.216;12.396;2022-12-18T16:54:41;-6.50;81.80
70366;DHT22;57787;48.216;12.396;2022-12-18T16:57:15;-6.50;81.80
70366;DHT22;57787;48.216;12.396;2022-12-18T16:59:42;-6.60;82.20
70366;DHT22;57787;48.216;12.396;2022-12-18T17:02:28;-6.60;81.90
70366;DHT22;57787;48.216;12.396;2022-12-18T17:04:56;-6.60;82.10
70366;DHT22;57787;48.216;12.396;2022-12-18T17:07:24;-6.70;81.90
70366;DHT22;57787;48.216;12.396;2022-12-18T17:09:52;-6.80;81.90
70366;DHT22;57787;48.216;12.396;2022-12-18T17:12:21;-6.80;82.10
70366;DHT22;57787;48.216;12.396;2022-12-18T17:14:49;-6.80;82.40
70366;DHT22;57787;48.216;12.396;2022-12-18T17:17:16;-6.80;82.40
70366;DHT22;57787;48.216;12.396;2022-12-18T17:19:49;-6.90;82.50
70366;DHT22;57787;48.216;12.396;2022-12-18T17:22:17;-6.90;82.50
70366;DHT22;57787;48.216;12.396;2022-12-18T17:24:46;-6.90;82.50
70366;DHT22;57787;48.216;12.396;2022-12-18T17:27:13;-6.90;83.20
70366;DHT22;57787;48.216;12.396;2022-12-18T17:29:41;-6.90;83.30